Terminal Aerodrome Forecast
Issued by NWS Missoula, MT

Home | Current Version | Previous Version | Text Only | Print | Product List | Glossary On
Versions: 1 2 3 4 5 6 7 8 9 10 11 12 13 14 15 16 17 18 19 20 21 22
833
FTUS45 KMSO 232320
TAFMSO
TAF
KMSO 232320Z 2400/2424 35010KT P6SM VCSH BKN070
     FM241200 31003KT 5SM BR VCFG FEW004 SCT080
     FM241600 30007KT P6SM VCSH BKN050=

USA.gov is the U.S. government's official web portal to all federal, state and local government web resources and services.